sensor_id;sensor_type;location;lat;lon;timestamp;pressure;altitude;pressure_sealevel;temperature;humidity
7834;BME280;3962;42.696;23.354;2023-05-24T00:00:09;95000.63;;;13.93;80.52
7834;BME280;3962;42.696;23.354;2023-05-24T00:02:38;94999.59;;;13.94;80.70
7834;BME280;3962;42.696;23.354;2023-05-24T00:05:08;95005.75;;;13.95;80.60
7834;BME280;3962;42.696;23.354;2023-05-24T00:07:35;95004.47;;;13.91;81.26
7834;BME280;3962;42.696;23.354;2023-05-24T00:10:02;94999.13;;;13.91;80.70
7834;BME280;3962;42.696;23.354;2023-05-24T00:12:30;94999.16;;;13.83;80.01
7834;BME280;3962;42.696;23.354;2023-05-24T00:14:57;95004.69;;;13.73;81.03
7834;BME280;3962;42.696;23.354;2023-05-24T00:17:24;95000.38;;;13.64;81.45
7834;BME280;3962;42.696;23.354;2023-05-24T00:19:52;94995.72;;;13.58;82.57
7834;BME280;3962;42.696;23.354;2023-05-24T00:22:20;94992.41;;;13.48;83.13
7834;BME280;3962;42.696;23.354;2023-05-24T00:24:47;94996.09;;;13.47;83.18
7834;BME280;3962;42.696;23.354;2023-05-24T00:27:14;94986.59;;;13.45;82.88
7834;BME280;3962;42.696;23.354;2023-05-24T00:29:41;94995.09;;;13.48;83.09
7834;BME280;3962;42.696;23.354;2023-05-24T00:32:08;94991.59;;;13.40;82.93
7834;BME280;3962;42.696;23.354;2023-05-24T00:34:35;94988.47;;;13.20;83.48
7834;BME280;3962;42.696;23.354;2023-05-24T00:37:01;94990.34;;;13.12;83.10
7834;BME280;3962;42.696;23.354;2023-05-24T00:39:30;94990.66;;;13.09;84.10
7834;BME280;3962;42.696;23.354;2023-05-24T00:41:56;94986.03;;;13.03;84.40
7834;BME280;3962;42.696;23.354;2023-05-24T00:44:23;94982.34;;;13.04;84.14
7834;BME280;3962;42.696;23.354;2023-05-24T00:46:50;94982.84;;;13.07;84.34
7834;BME280;3962;42.696;23.354;2023-05-24T00:49:18;94985.00;;;13.04;84.00
7834;BME280;3962;42.696;23.354;2023-05-24T00:51:45;94981.00;;;13.00;84.30
7834;BME280;3962;42.696;23.354;2023-05-24T00:54:12;94981.66;;;13.02;83.82
7834;BME280;3962;42.696;23.354;2023-05-24T00:56:41;94995.84;;;13.02;84.03
7834;BME280;3962;42.696;23.354;2023-05-24T00:59:08;94983.00;;;12.98;84.43
7834;BME280;3962;42.696;23.354;2023-05-24T01:01:35;94988.69;;;13.03;84.63
7834;BME280;3962;42.696;23.354;2023-05-24T01:04:02;94985.50;;;13.07;85.12
7834;BME280;3962;42.696;23.354;2023-05-24T01:06:31;94983.16;;;13.04;85.21
7834;BME280;3962;42.696;23.354;2023-05-24T01:09:12;94987.34;;;13.07;84.97
7834;BME280;3962;42.696;23.354;2023-05-24T01:11:52;94991.00;;;13.06;84.85
7834;BME280;3962;42.696;23.354;2023-05-24T01:14:26;94996.50;;;13.04;84.78
7834;BME280;3962;42.696;23.354;2023-05-24T01:16:59;94997.22;;;12.98;84.13
7834;BME280;3962;42.696;23.354;2023-05-24T01:19:57;94998.66;;;12.93;84.83
7834;BME280;3962;42.696;23.354;2023-05-24T01:22:54;94999.00;;;12.82;84.84
7834;BME280;3962;42.696;23.354;2023-05-24T01:25:45;95000.84;;;12.73;85.87
7834;BME280;3962;42.696;23.354;2023-05-24T01:28:16;95007.69;;;12.68;86.17
7834;BME280;3962;42.696;23.354;2023-05-24T01:30:43;95010.84;;;12.63;86.85
7834;BME280;3962;42.696;23.354;2023-05-24T01:33:11;95008.53;;;12.60;87.59
7834;BME280;3962;42.696;23.354;2023-05-24T01:35:38;95010.03;;;12.47;87.71
7834;BME280;3962;42.696;23.354;2023-05-24T01:38:07;95005.66;;;12.46;88.31
7834;BME280;3962;42.696;23.354;2023-05-24T01:40:35;95006.16;;;12.41;89.30
7834;BME280;3962;42.696;23.354;2023-05-24T01:43:14;94997.84;;;12.44;89.27
7834;BME280;3962;42.696;23.354;2023-05-24T01:45:51;94994.31;;;12.44;89.74
7834;BME280;3962;42.696;23.354;2023-05-24T01:48:25;94989.16;;;12.42;89.31
7834;BME280;3962;42.696;23.354;2023-05-24T01:50:56;94993.66;;;12.50;89.81
7834;BME280;3962;42.696;23.354;2023-05-24T01:53:25;94999.66;;;12.60;89.13
7834;BME280;3962;42.696;23.354;2023-05-24T01:55:56;94996.00;;;12.61;88.87
7834;BME280;3962;42.696;23.354;2023-05-24T01:58:24;94991.16;;;12.64;88.98
7834;BME280;3962;42.696;23.354;2023-05-24T02:00:54;94990.84;;;12.67;88.47
7834;BME280;3962;42.696;23.354;2023-05-24T02:03:21;94990.16;;;12.65;88.33
7834;BME280;3962;42.696;23.354;2023-05-24T02:05:48;94994.50;;;12.66;88.07
7834;BME280;3962;42.696;23.354;2023-05-24T02:08:14;94993.53;;;12.67;88.71
7834;BME280;3962;42.696;23.354;2023-05-24T02:10:41;94995.34;;;12.67;88.11
7834;BME280;3962;42.696;23.354;2023-05-24T02:13:08;94991.66;;;12.60;88.57
7834;BME280;3962;42.696;23.354;2023-05-24T02:15:35;94990.34;;;12.64;88.50
7834;BME280;3962;42.696;23.354;2023-05-24T02:18:03;94992.00;;;12.65;87.84
7834;BME280;3962;42.696;23.354;2023-05-24T02:20:32;94982.50;;;12.54;87.96
7834;BME280;3962;42.696;23.354;2023-05-24T02:23:01;94982.00;;;12.43;88.18
7834;BME280;3962;42.696;23.354;2023-05-24T02:25:28;94980.47;;;12.32;88.63
7834;BME280;3962;42.696;23.354;2023-05-24T02:27:56;94983.47;;;12.29;88.70
7834;BME280;3962;42.696;23.354;2023-05-24T02:30:22;94984.78;;;12.25;89.44
7834;BME280;3962;42.696;23.354;2023-05-24T02:32:49;94984.97;;;12.24;89.57
7834;BME280;3962;42.696;23.354;2023-05-24T02:35:18;94992.28;;;12.14;89.98
7834;BME280;3962;42.696;23.354;2023-05-24T02:37:44;94982.94;;;12.10;90.26
7834;BME280;3962;42.696;23.354;2023-05-24T02:40:12;94976.94;;;12.08;90.03
7834;BME280;3962;42.696;23.354;2023-05-24T02:42:38;94977.59;;;12.10;90.72
7834;BME280;3962;42.696;23.354;2023-05-24T02:45:06;94977.59;;;12.10;90.36
7834;BME280;3962;42.696;23.354;2023-05-24T02:47:33;94976.44;;;12.04;90.90
7834;BME280;3962;42.696;23.354;2023-05-24T02:50:00;94994.25;;;12.04;90.80
7834;BME280;3962;42.696;23.354;2023-05-24T02:52:28;94983.59;;;12.04;91.26
7834;BME280;3962;42.696;23.354;2023-05-24T02:54:55;94983.59;;;12.04;90.93
7834;BME280;3962;42.696;23.354;2023-05-24T02:57:22;94981.25;;;12.01;91.03
7834;BME280;3962;42.696;23.354;2023-05-24T02:59:49;94975.75;;;12.02;90.73
7834;BME280;3962;42.696;23.354;2023-05-24T03:02:15;94982.06;;;12.01;91.37
7834;BME280;3962;42.696;23.354;2023-05-24T03:04:43;94977.75;;;12.08;91.57
7834;BME280;3962;42.696;23.354;2023-05-24T03:07:10;94986.13;;;12.13;91.27
7834;BME280;3962;42.696;23.354;2023-05-24T03:09:39;94994.63;;;12.17;91.63
7834;BME280;3962;42.696;23.354;2023-05-24T03:12:07;95005.63;;;12.22;91.78
7834;BME280;3962;42.696;23.354;2023-05-24T03:14:33;95009.50;;;12.27;90.85
7834;BME280;3962;42.696;23.354;2023-05-24T03:17:00;95006.63;;;12.29;90.65
7834;BME280;3962;42.696;23.354;2023-05-24T03:19:27;95011.97;;;12.29;90.30
7834;BME280;3962;42.696;23.354;2023-05-24T03:21:54;95008.31;;;12.30;90.13
7834;BME280;3962;42.696;23.354;2023-05-24T03:24:21;95007.16;;;12.32;89.68
7834;BME280;3962;42.696;23.354;2023-05-24T03:26:49;95008.50;;;12.28;89.53
7834;BME280;3962;42.696;23.354;2023-05-24T03:29:16;95019.31;;;12.27;89.08
7834;BME280;3962;42.696;23.354;2023-05-24T03:31:43;95019.31;;;12.27;89.12
7834;BME280;3962;42.696;23.354;2023-05-24T03:34:10;95010.13;;;12.21;90.00
7834;BME280;3962;42.696;23.354;2023-05-24T03:36:36;95013.63;;;12.22;90.10
7834;BME280;3962;42.696;23.354;2023-05-24T03:39:03;95015.50;;;12.29;90.19
7834;BME280;3962;42.696;23.354;2023-05-24T03:41:30;95011.28;;;12.19;89.74
7834;BME280;3962;42.696;23.354;2023-05-24T03:43:59;95027.81;;;12.22;89.75
7834;BME280;3962;42.696;23.354;2023-05-24T03:46:25;95023.00;;;12.34;89.04
7834;BME280;3962;42.696;23.354;2023-05-24T03:48:52;95015.81;;;12.42;88.76
7834;BME280;3962;42.696;23.354;2023-05-24T03:51:19;95018.69;;;12.57;88.00
7834;BME280;3962;42.696;23.354;2023-05-24T03:53:48;95010.50;;;12.58;87.48
7834;BME280;3962;42.696;23.354;2023-05-24T03:56:14;95021.53;;;12.55;87.81
7834;BME280;3962;42.696;23.354;2023-05-24T03:58:41;95022.53;;;12.54;87.64
7834;BME280;3962;42.696;23.354;2023-05-24T04:01:09;95016.53;;;12.52;87.92
7834;BME280;3962;42.696;23.354;2023-05-24T04:03:37;95024.34;;;12.54;88.37
7834;BME280;3962;42.696;23.354;2023-05-24T04:06:05;95016.69;;;12.51;88.23
7834;BME280;3962;42.696;23.354;2023-05-24T04:08:32;95026.19;;;12.45;88.89
7834;BME280;3962;42.696;23.354;2023-05-24T04:10:58;95030.69;;;12.53;88.85
7834;BME280;3962;42.696;23.354;2023-05-24T04:13:25;95027.69;;;12.48;89.26
7834;BME280;3962;42.696;23.354;2023-05-24T04:15:52;95031.38;;;12.63;88.65
7834;BME280;3962;42.696;23.354;2023-05-24T04:18:20;95035.72;;;12.80;87.71
7834;BME280;3962;42.696;23.354;2023-05-24T04:20:47;95038.44;;;12.96;87.52
7834;BME280;3962;42.696;23.354;2023-05-24T04:23:14;95029.88;;;12.84;87.06
7834;BME280;3962;42.696;23.354;2023-05-24T04:25:41;95028.22;;;12.75;87.59
7834;BME280;3962;42.696;23.354;2023-05-24T04:28:08;95031.22;;;12.96;87.58
7834;BME280;3962;42.696;23.354;2023-05-24T04:30:35;95031.91;;;13.06;86.89
7834;BME280;3962;42.696;23.354;2023-05-24T04:33:01;95030.69;;;13.33;86.09
7834;BME280;3962;42.696;23.354;2023-05-24T04:35:30;95039.38;;;13.43;84.48
7834;BME280;3962;42.696;23.354;2023-05-24T04:37:57;95041.69;;;13.46;84.51
7834;BME280;3962;42.696;23.354;2023-05-24T04:40:24;95044.50;;;13.52;83.73
7834;BME280;3962;42.696;23.354;2023-05-24T04:42:51;95047.03;;;13.54;84.47
7834;BME280;3962;42.696;23.354;2023-05-24T04:45:18;95045.84;;;13.64;83.76
7834;BME280;3962;42.696;23.354;2023-05-24T04:47:45;95045.28;;;13.77;83.93
7834;BME280;3962;42.696;23.354;2023-05-24T04:50:12;95054.50;;;13.74;82.93
7834;BME280;3962;42.696;23.354;2023-05-24T04:52:40;95055.66;;;13.72;83.39
7834;BME280;3962;42.696;23.354;2023-05-24T04:55:08;95055.13;;;13.76;83.37
7834;BME280;3962;42.696;23.354;2023-05-24T04:57:35;95063.34;;;13.83;83.52
7834;BME280;3962;42.696;23.354;2023-05-24T05:00:02;95062.16;;;13.85;82.91
7834;BME280;3962;42.696;23.354;2023-05-24T05:02:31;95050.78;;;13.83;83.51
7834;BME280;3962;42.696;23.354;2023-05-24T05:04:58;95068.00;;;13.89;82.56
7834;BME280;3962;42.696;23.354;2023-05-24T05:07:25;95057.97;;;13.91;82.41
7834;BME280;3962;42.696;23.354;2023-05-24T05:09:53;95065.41;;;14.11;82.13
7834;BME280;3962;42.696;23.354;2023-05-24T05:12:21;95061.34;;;14.15;81.53
7834;BME280;3962;42.696;23.354;2023-05-24T05:14:48;95072.53;;;14.27;81.02
7834;BME280;3962;42.696;23.354;2023-05-24T05:17:15;95070.19;;;14.32;80.70
7834;BME280;3962;42.696;23.354;2023-05-24T05:19:42;95075.84;;;14.37;80.90
7834;BME280;3962;42.696;23.354;2023-05-24T05:22:09;95071.00;;;14.40;80.65
7834;BME280;3962;42.696;23.354;2023-05-24T05:24:36;95076.50;;;14.39;80.02
7834;BME280;3962;42.696;23.354;2023-05-24T05:27:04;95070.69;;;14.58;80.26
7834;BME280;3962;42.696;23.354;2023-05-24T05:29:31;95066.66;;;14.62;79.62
7834;BME280;3962;42.696;23.354;2023-05-24T05:31:58;95069.28;;;14.70;79.01
7834;BME280;3962;42.696;23.354;2023-05-24T05:34:25;95074.78;;;14.76;78.97
7834;BME280;3962;42.696;23.354;2023-05-24T05:36:52;95076.69;;;14.90;78.54
7834;BME280;3962;42.696;23.354;2023-05-24T05:39:19;95079.63;;;15.03;78.02
7834;BME280;3962;42.696;23.354;2023-05-24T05:41:46;95081.16;;;15.20;77.46
7834;BME280;3962;42.696;23.354;2023-05-24T05:44:15;95080.25;;;15.27;76.34
7834;BME280;3962;42.696;23.354;2023-05-24T05:46:42;95077.34;;;15.14;77.05
7834;BME280;3962;42.696;23.354;2023-05-24T05:49:10;95080.06;;;15.29;76.87
7834;BME280;3962;42.696;23.354;2023-05-24T05:51:37;95077.56;;;15.50;76.51
7834;BME280;3962;42.696;23.354;2023-05-24T05:54:04;95083.84;;;15.57;75.75
7834;BME280;3962;42.696;23.354;2023-05-24T05:56:33;95074.66;;;15.74;74.72
7834;BME280;3962;42.696;23.354;2023-05-24T05:59:05;95072.63;;;15.76;74.46
7834;BME280;3962;42.696;23.354;2023-05-24T06:01:33;95076.69;;;15.86;74.01
7834;BME280;3962;42.696;23.354;2023-05-24T06:04:00;95086.03;;;15.90;73.93
7834;BME280;3962;42.696;23.354;2023-05-24T06:06:27;95080.97;;;15.95;73.26
7834;BME280;3962;42.696;23.354;2023-05-24T06:08:54;95086.41;;;16.02;73.72
7834;BME280;3962;42.696;23.354;2023-05-24T06:11:21;95091.03;;;16.08;73.65
7834;BME280;3962;42.696;23.354;2023-05-24T06:13:48;95093.00;;;16.14;73.06
7834;BME280;3962;42.696;23.354;2023-05-24T06:16:15;95086.03;;;16.34;72.16
7834;BME280;3962;42.696;23.354;2023-05-24T06:18:45;95087.34;;;16.52;71.82
7834;BME280;3962;42.696;23.354;2023-05-24T06:21:13;95083.09;;;16.79;71.35
7834;BME280;3962;42.696;23.354;2023-05-24T06:23:41;95086.59;;;16.94;70.65
7834;BME280;3962;42.696;23.354;2023-05-24T06:26:08;95082.56;;;17.04;70.47
7834;BME280;3962;42.696;23.354;2023-05-24T06:28:37;95094.66;;;17.15;69.67
7834;BME280;3962;42.696;23.354;2023-05-24T06:31:07;95086.78;;;17.34;69.25
7834;BME280;3962;42.696;23.354;2023-05-24T06:33:34;95075.28;;;17.40;68.87
7834;BME280;3962;42.696;23.354;2023-05-24T06:36:03;95082.63;;;17.32;68.37
7834;BME280;3962;42.696;23.354;2023-05-24T06:38:30;95072.56;;;17.61;68.33
7834;BME280;3962;42.696;23.354;2023-05-24T06:40:57;95077.72;;;17.84;66.71
7834;BME280;3962;42.696;23.354;2023-05-24T06:43:24;95082.34;;;17.96;67.25
7834;BME280;3962;42.696;23.354;2023-05-24T06:45:55;95076.75;;;17.91;66.38
7834;BME280;3962;42.696;23.354;2023-05-24T06:48:22;95074.72;;;18.00;66.48
7834;BME280;3962;42.696;23.354;2023-05-24T06:50:49;95083.06;;;18.39;65.88
7834;BME280;3962;42.696;23.354;2023-05-24T06:53:17;95074.53;;;18.69;65.08
7834;BME280;3962;42.696;23.354;2023-05-24T06:55:44;95086.00;;;19.03;63.64
7834;BME280;3962;42.696;23.354;2023-05-24T06:58:11;95086.13;;;19.29;63.01
7834;BME280;3962;42.696;23.354;2023-05-24T07:00:39;95077.66;;;20.23;60.15
7834;BME280;3962;42.696;23.354;2023-05-24T07:03:09;95078.59;;;21.49;55.92
7834;BME280;3962;42.696;23.354;2023-05-24T07:05:37;95074.16;;;22.10;54.26
7834;BME280;3962;42.696;23.354;2023-05-24T07:08:16;95060.50;;;22.48;52.41
7834;BME280;3962;42.696;23.354;2023-05-24T07:10:46;95088.19;;;23.80;50.23
7834;BME280;3962;42.696;23.354;2023-05-24T07:13:14;95087.25;;;24.39;48.48
7834;BME280;3962;42.696;23.354;2023-05-24T07:15:42;95088.91;;;24.40;47.83
7834;BME280;3962;42.696;23.354;2023-05-24T07:18:08;95085.56;;;24.84;47.69
7834;BME280;3962;42.696;23.354;2023-05-24T07:20:36;95088.03;;;24.97;46.31
7834;BME280;3962;42.696;23.354;2023-05-24T07:23:05;95078.03;;;24.51;47.48
7834;BME280;3962;42.696;23.354;2023-05-24T07:25:32;95090.66;;;24.80;47.22
7834;BME280;3962;42.696;23.354;2023-05-24T07:28:00;95085.47;;;24.90;46.41
7834;BME280;3962;42.696;23.354;2023-05-24T07:30:28;95090.66;;;24.92;46.55
7834;BME280;3962;42.696;23.354;2023-05-24T07:32:55;95088.41;;;24.89;46.53
7834;BME280;3962;42.696;23.354;2023-05-24T07:35:22;95090.38;;;25.16;46.60
7834;BME280;3962;42.696;23.354;2023-05-24T07:37:49;95086.47;;;25.24;46.15
7834;BME280;3962;42.696;23.354;2023-05-24T07:40:17;95091.78;;;25.58;45.46
7834;BME280;3962;42.696;23.354;2023-05-24T07:42:47;95097.28;;;25.75;45.67
7834;BME280;3962;42.696;23.354;2023-05-24T07:45:16;95091.25;;;25.73;44.93
7834;BME280;3962;42.696;23.354;2023-05-24T07:47:46;95087.88;;;26.10;44.44
7834;BME280;3962;42.696;23.354;2023-05-24T07:50:32;95094.47;;;26.31;44.18
7834;BME280;3962;42.696;23.354;2023-05-24T07:53:00;95091.97;;;26.79;43.51
7834;BME280;3962;42.696;23.354;2023-05-24T07:55:41;95088.84;;;26.37;43.45
7834;BME280;3962;42.696;23.354;2023-05-24T07:58:11;95086.13;;;26.37;43.10
7834;BME280;3962;42.696;23.354;2023-05-24T08:00:42;95090.31;;;26.12;43.53
7834;BME280;3962;42.696;23.354;2023-05-24T08:03:08;95081.34;;;26.28;42.74
7834;BME280;3962;42.696;23.354;2023-05-24T08:05:40;95084.22;;;26.54;42.71
7834;BME280;3962;42.696;23.354;2023-05-24T08:08:07;95089.16;;;26.90;42.33
7834;BME280;3962;42.696;23.354;2023-05-24T08:10:35;95086.72;;;27.32;42.25
7834;BME280;3962;42.696;23.354;2023-05-24T08:13:05;95079.78;;;26.86;42.14
7834;BME280;3962;42.696;23.354;2023-05-24T08:15:32;95076.66;;;26.56;41.47
7834;BME280;3962;42.696;23.354;2023-05-24T08:18:04;95074.16;;;26.71;40.48
7834;BME280;3962;42.696;23.354;2023-05-24T08:20:34;95081.75;;;27.29;40.04
7834;BME280;3962;42.696;23.354;2023-05-24T08:23:02;95072.13;;;27.69;40.18
7834;BME280;3962;42.696;23.354;2023-05-24T08:25:29;95078.16;;;28.24;38.36
7834;BME280;3962;42.696;23.354;2023-05-24T08:28:01;95075.38;;;27.66;37.76
7834;BME280;3962;42.696;23.354;2023-05-24T08:30:28;95074.47;;;27.60;36.82
7834;BME280;3962;42.696;23.354;2023-05-24T08:32:58;95070.22;;;27.69;36.27
7834;BME280;3962;42.696;23.354;2023-05-24T08:35:26;95075.81;;;28.06;35.06
7834;BME280;3962;42.696;23.354;2023-05-24T08:37:55;95079.19;;;28.18;34.77
7834;BME280;3962;42.696;23.354;2023-05-24T08:40:23;95075.41;;;28.50;34.70
7834;BME280;3962;42.696;23.354;2023-05-24T08:42:51;95071.50;;;28.83;33.66
7834;BME280;3962;42.696;23.354;2023-05-24T08:45:20;95073.31;;;29.04;33.45
7834;BME280;3962;42.696;23.354;2023-05-24T08:47:49;95063.47;;;29.03;33.06
7834;BME280;3962;42.696;23.354;2023-05-24T08:50:19;95073.00;;;28.27;33.55
7834;BME280;3962;42.696;23.354;2023-05-24T08:52:48;95061.06;;;27.80;34.26
7834;BME280;3962;42.696;23.354;2023-05-24T08:55:19;95065.59;;;28.28;33.95
7834;BME280;3962;42.696;23.354;2023-05-24T08:58:01;95063.50;;;28.03;33.88
7834;BME280;3962;42.696;23.354;2023-05-24T09:00:35;95064.09;;;28.10;33.63
7834;BME280;3962;42.696;23.354;2023-05-24T09:03:11;95066.16;;;27.98;33.95
7834;BME280;3962;42.696;23.354;2023-05-24T09:06:09;95068.56;;;27.68;33.99
7834;BME280;3962;42.696;23.354;2023-05-24T09:08:39;95063.88;;;27.64;34.26
7834;BME280;3962;42.696;23.354;2023-05-24T09:11:19;95071.75;;;27.82;34.46
7834;BME280;3962;42.696;23.354;2023-05-24T09:16:26;95056.81;;;27.68;33.98
7834;BME280;3962;42.696;23.354;2023-05-24T09:18:53;95059.06;;;27.49;33.14
7834;BME280;3962;42.696;23.354;2023-05-24T09:21:20;95063.41;;;27.24;33.41
7834;BME280;3962;42.696;23.354;2023-05-24T09:23:49;95059.97;;;27.34;32.68
7834;BME280;3962;42.696;23.354;2023-05-24T09:26:16;95057.06;;;27.19;32.51
7834;BME280;3962;42.696;23.354;2023-05-24T09:28:43;95055.34;;;27.34;33.39
7834;BME280;3962;42.696;23.354;2023-05-24T09:31:12;95056.50;;;27.17;33.68
7834;BME280;3962;42.696;23.354;2023-05-24T09:33:39;95055.81;;;27.10;33.49
7834;BME280;3962;42.696;23.354;2023-05-24T09:36:06;95047.53;;;27.21;34.23
7834;BME280;3962;42.696;23.354;2023-05-24T09:38:33;95053.34;;;27.30;33.77
7834;BME280;3962;42.696;23.354;2023-05-24T09:41:02;95050.47;;;26.98;34.49
7834;BME280;3962;42.696;23.354;2023-05-24T09:43:31;95054.19;;;27.09;34.10
7834;BME280;3962;42.696;23.354;2023-05-24T09:46:01;95058.69;;;26.98;34.73
7834;BME280;3962;42.696;23.354;2023-05-24T09:48:29;95052.66;;;27.39;35.32
7834;BME280;3962;42.696;23.354;2023-05-24T09:51:02;95052.31;;;27.57;34.28
7834;BME280;3962;42.696;23.354;2023-05-24T09:53:31;95052.72;;;27.44;34.10
7834;BME280;3962;42.696;23.354;2023-05-24T09:55:59;95043.59;;;26.74;34.95
7834;BME280;3962;42.696;23.354;2023-05-24T09:58:30;95048.94;;;26.86;33.50
7834;BME280;3962;42.696;23.354;2023-05-24T10:01:05;95022.94;;;26.45;33.54
7834;BME280;3962;42.696;23.354;2023-05-24T10:03:33;95041.19;;;26.07;34.70
7834;BME280;3962;42.696;23.354;2023-05-24T10:06:02;95036.66;;;25.84;34.33
7834;BME280;3962;42.696;23.354;2023-05-24T10:08:32;95036.72;;;26.01;34.29
7834;BME280;3962;42.696;23.354;2023-05-24T10:11:01;95038.19;;;26.41;33.16
7834;BME280;3962;42.696;23.354;2023-05-24T10:13:31;95030.81;;;26.58;34.60
7834;BME280;3962;42.696;23.354;2023-05-24T10:15:58;95030.97;;;26.90;35.06
7834;BME280;3962;42.696;23.354;2023-05-24T10:18:24;95021.44;;;26.71;32.47
7834;BME280;3962;42.696;23.354;2023-05-24T10:20:54;95020.78;;;26.47;32.36
7834;BME280;3962;42.696;23.354;2023-05-24T10:23:21;95025.06;;;26.22;32.52
7834;BME280;3962;42.696;23.354;2023-05-24T10:25:55;95020.50;;;26.44;33.16
7834;BME280;3962;42.696;23.354;2023-05-24T10:28:24;95026.13;;;26.75;32.18
7834;BME280;3962;42.696;23.354;2023-05-24T10:31:04;95017.63;;;26.93;31.79
7834;BME280;3962;42.696;23.354;2023-05-24T10:33:36;95023.16;;;27.15;33.58
7834;BME280;3962;42.696;23.354;2023-05-24T10:36:05;95031.56;;;27.13;31.73
7834;BME280;3962;42.696;23.354;2023-05-24T10:38:36;95016.13;;;26.81;32.63
7834;BME280;3962;42.696;23.354;2023-05-24T10:41:05;95010.41;;;26.82;30.90
7834;BME280;3962;42.696;23.354;2023-05-24T10:43:32;95012.50;;;26.21;32.06
7834;BME280;3962;42.696;23.354;2023-05-24T10:46:01;95005.41;;;26.03;33.21
7834;BME280;3962;42.696;23.354;2023-05-24T10:48:39;95000.13;;;26.51;31.74
7834;BME280;3962;42.696;23.354;2023-05-24T10:51:36;95005.56;;;27.11;31.82
7834;BME280;3962;42.696;23.354;2023-05-24T10:54:13;94993.56;;;27.59;32.62
7834;BME280;3962;42.696;23.354;2023-05-24T10:56:43;95002.44;;;27.45;33.66
7834;BME280;3962;42.696;23.354;2023-05-24T10:59:30;94996.28;;;27.54;32.65
7834;BME280;3962;42.696;23.354;2023-05-24T11:02:00;94992.06;;;27.21;32.45
7834;BME280;3962;42.696;23.354;2023-05-24T11:04:35;94989.72;;;27.29;32.66
7834;BME280;3962;42.696;23.354;2023-05-24T11:07:06;94992.38;;;26.81;33.43
7834;BME280;3962;42.696;23.354;2023-05-24T11:09:35;94984.16;;;26.22;33.69
7834;BME280;3962;42.696;23.354;2023-05-24T11:12:05;94982.00;;;26.07;33.53
7834;BME280;3962;42.696;23.354;2023-05-24T11:14:35;94987.00;;;26.48;33.89
7834;BME280;3962;42.696;23.354;2023-05-24T11:17:05;94977.75;;;26.33;33.40
7834;BME280;3962;42.696;23.354;2023-05-24T11:19:35;94986.97;;;26.10;34.17
7834;BME280;3962;42.696;23.354;2023-05-24T11:22:05;94977.13;;;25.93;35.01
7834;BME280;3962;42.696;23.354;2023-05-24T11:24:32;94978.31;;;26.35;34.35
7834;BME280;3962;42.696;23.354;2023-05-24T11:27:00;94979.25;;;26.40;33.78
7834;BME280;3962;42.696;23.354;2023-05-24T11:29:28;94969.47;;;26.82;34.40
7834;BME280;3962;42.696;23.354;2023-05-24T11:31:57;94979.88;;;27.28;33.28
7834;BME280;3962;42.696;23.354;2023-05-24T11:34:30;94981.47;;;26.81;33.18
7834;BME280;3962;42.696;23.354;2023-05-24T11:36:58;94970.03;;;26.46;33.73
7834;BME280;3962;42.696;23.354;2023-05-24T11:39:28;94970.03;;;26.46;33.74
7834;BME280;3962;42.696;23.354;2023-05-24T11:41:55;94970.47;;;26.38;33.46
7834;BME280;3962;42.696;23.354;2023-05-24T11:44:22;94968.56;;;26.39;33.68
7834;BME280;3962;42.696;23.354;2023-05-24T11:46:56;94957.25;;;26.68;32.90
7834;BME280;3962;42.696;23.354;2023-05-24T11:49:23;94958.81;;;27.29;32.80
7834;BME280;3962;42.696;23.354;2023-05-24T11:51:52;94954.72;;;27.26;34.00
7834;BME280;3962;42.696;23.354;2023-05-24T11:54:19;94948.09;;;27.75;32.62
7834;BME280;3962;42.696;23.354;2023-05-24T11:56:46;94950.88;;;27.80;32.39
7834;BME280;3962;42.696;23.354;2023-05-24T11:59:14;94944.13;;;27.35;32.70
7834;BME280;3962;42.696;23.354;2023-05-24T12:01:42;94941.19;;;27.41;32.84
7834;BME280;3962;42.696;23.354;2023-05-24T12:04:09;94945.00;;;27.40;32.05
7834;BME280;3962;42.696;23.354;2023-05-24T12:06:38;94946.94;;;27.40;32.31
7834;BME280;3962;42.696;23.354;2023-05-24T12:09:06;94941.47;;;27.71;32.37
7834;BME280;3962;42.696;23.354;2023-05-24T12:11:38;94938.41;;;27.94;32.56
7834;BME280;3962;42.696;23.354;2023-05-24T12:14:06;94946.06;;;27.65;32.64
7834;BME280;3962;42.696;23.354;2023-05-24T12:16:34;94946.50;;;27.05;33.06
7834;BME280;3962;42.696;23.354;2023-05-24T12:19:01;94940.00;;;26.46;34.27
7834;BME280;3962;42.696;23.354;2023-05-24T12:21:31;94927.50;;;25.58;35.81
7834;BME280;3962;42.696;23.354;2023-05-24T12:24:11;94925.69;;;25.19;36.92
7834;BME280;3962;42.696;23.354;2023-05-24T12:26:41;94927.72;;;25.12;36.78
7834;BME280;3962;42.696;23.354;2023-05-24T12:29:09;94933.25;;;25.78;35.51
7834;BME280;3962;42.696;23.354;2023-05-24T12:31:38;94921.78;;;26.30;35.04
7834;BME280;3962;42.696;23.354;2023-05-24T12:34:06;94913.41;;;26.53;34.29
7834;BME280;3962;42.696;23.354;2023-05-24T12:36:33;94916.97;;;26.75;34.86
7834;BME280;3962;42.696;23.354;2023-05-24T12:39:16;94910.84;;;26.90;34.59
7834;BME280;3962;42.696;23.354;2023-05-24T12:41:43;94910.19;;;27.04;34.41
7834;BME280;3962;42.696;23.354;2023-05-24T12:44:10;94915.09;;;26.81;34.43
7834;BME280;3962;42.696;23.354;2023-05-24T12:46:37;94912.69;;;26.84;34.26
7834;BME280;3962;42.696;23.354;2023-05-24T12:49:04;94907.78;;;27.08;34.51
7834;BME280;3962;42.696;23.354;2023-05-24T12:51:31;94907.81;;;27.34;33.71
7834;BME280;3962;42.696;23.354;2023-05-24T12:53:58;94909.78;;;27.43;33.91
7834;BME280;3962;42.696;23.354;2023-05-24T12:56:30;94902.59;;;26.85;34.42
7834;BME280;3962;42.696;23.354;2023-05-24T12:58:57;94903.28;;;26.32;35.60
7834;BME280;3962;42.696;23.354;2023-05-24T13:01:24;94900.72;;;26.47;34.58
7834;BME280;3962;42.696;23.354;2023-05-24T13:03:52;94896.19;;;26.74;34.57
7834;BME280;3962;42.696;23.354;2023-05-24T13:06:19;94900.03;;;27.21;34.25
7834;BME280;3962;42.696;23.354;2023-05-24T13:08:46;94899.84;;;27.33;33.26
7834;BME280;3962;42.696;23.354;2023-05-24T13:11:13;94889.91;;;26.95;33.96
7834;BME280;3962;42.696;23.354;2023-05-24T13:13:42;94890.16;;;26.94;33.92
7834;BME280;3962;42.696;23.354;2023-05-24T13:16:10;94887.00;;;27.07;34.53
7834;BME280;3962;42.696;23.354;2023-05-24T13:18:37;94883.44;;;26.80;35.10
7834;BME280;3962;42.696;23.354;2023-05-24T13:21:04;94888.41;;;26.23;34.80